sensor_id;sensor_type;location;lat;lon;timestamp;P1;durP1;ratioP1;P2;durP2;ratioP2
16101;SDS011;56411;52.964;10.540;2023-06-10T00:00:28;14.88;;;6.22;;
16101;SDS011;56411;52.964;10.540;2023-06-10T00:02:56;13.40;;;5.83;;
16101;SDS011;56411;52.964;10.540;2023-06-10T00:05:24;13.07;;;5.80;;
16101;SDS011;56411;52.964;10.540;2023-06-10T00:07:55;15.10;;;6.43;;
16101;SDS011;56411;52.964;10.540;2023-06-10T00:10:24;17.63;;;6.67;;
16101;SDS011;56411;52.964;10.540;2023-06-10T00:12:51;15.00;;;6.13;;
16101;SDS011;56411;52.964;10.540;2023-06-10T00:15:18;12.70;;;5.82;;
16101;SDS011;56411;52.964;10.540;2023-06-10T00:17:45;14.97;;;6.60;;
16101;SDS011;56411;52.964;10.540;2023-06-10T00:20:12;14.57;;;6.53;;
16101;SDS011;56411;52.964;10.540;2023-06-10T00:22:39;14.30;;;6.20;;
16101;SDS011;56411;52.964;10.540;2023-06-10T00:25:10;12.23;;;6.45;;
16101;SDS011;56411;52.964;10.540;2023-06-10T00:27:39;16.00;;;6.38;;
16101;SDS011;56411;52.964;10.540;2023-06-10T00:30:06;13.60;;;6.23;;
16101;SDS011;56411;52.964;10.540;2023-06-10T00:32:34;14.80;;;6.73;;
16101;SDS011;56411;52.964;10.540;2023-06-10T00:35:02;15.85;;;7.05;;
16101;SDS011;56411;52.964;10.540;2023-06-10T00:37:29;14.67;;;6.50;;
16101;SDS011;56411;52.964;10.540;2023-06-10T00:39:57;14.73;;;6.90;;
16101;SDS011;56411;52.964;10.540;2023-06-10T00:42:24;15.30;;;6.57;;
16101;SDS011;56411;52.964;10.540;2023-06-10T00:44:53;14.63;;;6.80;;
16101;SDS011;56411;52.964;10.540;2023-06-10T00:47:21;13.27;;;6.40;;
16101;SDS011;56411;52.964;10.540;2023-06-10T00:49:48;13.30;;;6.90;;
16101;SDS011;56411;52.964;10.540;2023-06-10T00:52:16;13.43;;;7.03;;
16101;SDS011;56411;52.964;10.540;2023-06-10T00:54:44;16.17;;;6.45;;
16101;SDS011;56411;52.964;10.540;2023-06-10T00:57:12;16.15;;;6.40;;
16101;SDS011;56411;52.964;10.540;2023-06-10T00:59:39;14.63;;;6.87;;
16101;SDS011;56411;52.964;10.540;2023-06-10T01:02:08;13.73;;;6.13;;
16101;SDS011;56411;52.964;10.540;2023-06-10T01:04:35;14.63;;;7.37;;
16101;SDS011;56411;52.964;10.540;2023-06-10T01:07:05;14.43;;;7.10;;
16101;SDS011;56411;52.964;10.540;2023-06-10T01:09:38;14.45;;;7.80;;
16101;SDS011;56411;52.964;10.540;2023-06-10T01:12:12;14.53;;;8.00;;
16101;SDS011;56411;52.964;10.540;2023-06-10T01:14:45;13.77;;;7.43;;
16101;SDS011;56411;52.964;10.540;2023-06-10T01:17:15;15.53;;;7.80;;
16101;SDS011;56411;52.964;10.540;2023-06-10T01:19:43;14.73;;;8.13;;
16101;SDS011;56411;52.964;10.540;2023-06-10T01:22:11;16.17;;;8.27;;
16101;SDS011;56411;52.964;10.540;2023-06-10T01:24:41;15.40;;;8.27;;
16101;SDS011;56411;52.964;10.540;2023-06-10T01:27:11;15.67;;;7.73;;
16101;SDS011;56411;52.964;10.540;2023-06-10T01:29:41;17.58;;;8.38;;
16101;SDS011;56411;52.964;10.540;2023-06-10T01:32:12;14.77;;;8.07;;
16101;SDS011;56411;52.964;10.540;2023-06-10T01:34:44;15.87;;;8.43;;
16101;SDS011;56411;52.964;10.540;2023-06-10T01:37:16;15.03;;;8.20;;
16101;SDS011;56411;52.964;10.540;2023-06-10T01:39:45;15.53;;;7.90;;
16101;SDS011;56411;52.964;10.540;2023-06-10T01:42:13;15.57;;;7.87;;
16101;SDS011;56411;52.964;10.540;2023-06-10T01:44:41;16.67;;;8.27;;
16101;SDS011;56411;52.964;10.540;2023-06-10T01:47:08;16.77;;;9.00;;
16101;SDS011;56411;52.964;10.540;2023-06-10T01:49:35;16.47;;;8.47;;
16101;SDS011;56411;52.964;10.540;2023-06-10T01:52:03;15.60;;;8.00;;
16101;SDS011;56411;52.964;10.540;2023-06-10T01:54:31;16.00;;;8.53;;
16101;SDS011;56411;52.964;10.540;2023-06-10T01:56:59;19.15;;;8.55;;
16101;SDS011;56411;52.964;10.540;2023-06-10T01:59:30;16.07;;;8.30;;
16101;SDS011;56411;52.964;10.540;2023-06-10T02:01:57;16.33;;;8.73;;
16101;SDS011;56411;52.964;10.540;2023-06-10T02:04:24;17.48;;;8.43;;
16101;SDS011;56411;52.964;10.540;2023-06-10T02:06:51;15.63;;;7.90;;
16101;SDS011;56411;52.964;10.540;2023-06-10T02:09:18;14.63;;;7.87;;
16101;SDS011;56411;52.964;10.540;2023-06-10T02:11:46;15.87;;;8.10;;
16101;SDS011;56411;52.964;10.540;2023-06-10T02:14:13;16.10;;;7.37;;
16101;SDS011;56411;52.964;10.540;2023-06-10T02:16:40;14.10;;;7.90;;
16101;SDS011;56411;52.964;10.540;2023-06-10T02:19:11;15.40;;;7.80;;
16101;SDS011;56411;52.964;10.540;2023-06-10T02:21:38;16.27;;;7.70;;
16101;SDS011;56411;52.964;10.540;2023-06-10T02:24:06;14.37;;;7.53;;
16101;SDS011;56411;52.964;10.540;2023-06-10T02:26:34;14.83;;;7.80;;
16101;SDS011;56411;52.964;10.540;2023-06-10T02:29:02;17.13;;;8.40;;
16101;SDS011;56411;52.964;10.540;2023-06-10T02:31:29;16.40;;;7.97;;
16101;SDS011;56411;52.964;10.540;2023-06-10T02:33:56;14.90;;;7.33;;
16101;SDS011;56411;52.964;10.540;2023-06-10T02:36:23;14.17;;;7.67;;
16101;SDS011;56411;52.964;10.540;2023-06-10T02:38:53;15.37;;;8.23;;
16101;SDS011;56411;52.964;10.540;2023-06-10T02:41:20;16.97;;;7.90;;
16101;SDS011;56411;52.964;10.540;2023-06-10T02:43:48;17.27;;;7.57;;
16101;SDS011;56411;52.964;10.540;2023-06-10T02:46:16;17.00;;;8.73;;
16101;SDS011;56411;52.964;10.540;2023-06-10T02:48:43;14.33;;;7.77;;
16101;SDS011;56411;52.964;10.540;2023-06-10T02:51:11;15.20;;;8.07;;
16101;SDS011;56411;52.964;10.540;2023-06-10T02:53:38;15.17;;;7.40;;
16101;SDS011;56411;52.964;10.540;2023-06-10T02:56:05;17.37;;;7.90;;
16101;SDS011;56411;52.964;10.540;2023-06-10T02:58:32;19.50;;;7.80;;
16101;SDS011;56411;52.964;10.540;2023-06-10T03:00:59;15.60;;;7.47;;
16101;SDS011;56411;52.964;10.540;2023-06-10T03:03:28;16.77;;;7.27;;
16101;SDS011;56411;52.964;10.540;2023-06-10T03:05:58;15.37;;;8.07;;
16101;SDS011;56411;52.964;10.540;2023-06-10T03:08:25;15.03;;;7.37;;
16101;SDS011;56411;52.964;10.540;2023-06-10T03:10:52;16.97;;;7.47;;
16101;SDS011;56411;52.964;10.540;2023-06-10T03:13:19;15.30;;;7.33;;
16101;SDS011;56411;52.964;10.540;2023-06-10T03:15:46;15.00;;;7.70;;
16101;SDS011;56411;52.964;10.540;2023-06-10T03:18:13;19.07;;;7.73;;
16101;SDS011;56411;52.964;10.540;2023-06-10T03:20:41;16.53;;;7.60;;
16101;SDS011;56411;52.964;10.540;2023-06-10T03:23:09;16.10;;;7.97;;
16101;SDS011;56411;52.964;10.540;2023-06-10T03:25:36;14.97;;;7.33;;
16101;SDS011;56411;52.964;10.540;2023-06-10T03:28:03;14.23;;;7.63;;
16101;SDS011;56411;52.964;10.540;2023-06-10T03:30:30;14.50;;;6.63;;
16101;SDS011;56411;52.964;10.540;2023-06-10T03:32:57;19.83;;;7.80;;
16101;SDS011;56411;52.964;10.540;2023-06-10T03:35:24;14.83;;;7.20;;
16101;SDS011;56411;52.964;10.540;2023-06-10T03:37:52;13.70;;;6.60;;
16101;SDS011;56411;52.964;10.540;2023-06-10T03:40:19;15.50;;;7.33;;
16101;SDS011;56411;52.964;10.540;2023-06-10T03:42:46;14.17;;;7.23;;
16101;SDS011;56411;52.964;10.540;2023-06-10T03:45:13;15.23;;;6.87;;
16101;SDS011;56411;52.964;10.540;2023-06-10T03:47:40;17.30;;;7.77;;
16101;SDS011;56411;52.964;10.540;2023-06-10T03:50:08;15.77;;;7.33;;
16101;SDS011;56411;52.964;10.540;2023-06-10T03:52:37;17.60;;;8.50;;
16101;SDS011;56411;52.964;10.540;2023-06-10T03:55:07;16.90;;;7.93;;
16101;SDS011;56411;52.964;10.540;2023-06-10T03:57:34;15.53;;;7.33;;
16101;SDS011;56411;52.964;10.540;2023-06-10T04:00:01;15.80;;;7.60;;
16101;SDS011;56411;52.964;10.540;2023-06-10T04:02:33;15.90;;;7.00;;
16101;SDS011;56411;52.964;10.540;2023-06-10T04:05:00;15.43;;;7.10;;
16101;SDS011;56411;52.964;10.540;2023-06-10T04:07:29;17.10;;;7.30;;
16101;SDS011;56411;52.964;10.540;2023-06-10T04:09:57;14.17;;;7.13;;
16101;SDS011;56411;52.964;10.540;2023-06-10T04:12:26;14.30;;;6.47;;
16101;SDS011;56411;52.964;10.540;2023-06-10T04:14:52;17.37;;;6.90;;
16101;SDS011;56411;52.964;10.540;2023-06-10T04:17:19;15.10;;;6.93;;
16101;SDS011;56411;52.964;10.540;2023-06-10T04:19:46;13.37;;;6.20;;
16101;SDS011;56411;52.964;10.540;2023-06-10T04:22:13;17.03;;;6.50;;
16101;SDS011;56411;52.964;10.540;2023-06-10T04:24:40;12.95;;;6.22;;
16101;SDS011;56411;52.964;10.540;2023-06-10T04:27:07;15.53;;;6.60;;
16101;SDS011;56411;52.964;10.540;2023-06-10T04:29:36;17.07;;;6.20;;
16101;SDS011;56411;52.964;10.540;2023-06-10T04:32:04;15.20;;;6.33;;
16101;SDS011;56411;52.964;10.540;2023-06-10T04:34:34;16.80;;;6.63;;
16101;SDS011;56411;52.964;10.540;2023-06-10T04:37:01;13.83;;;6.10;;
16101;SDS011;56411;52.964;10.540;2023-06-10T04:39:31;14.73;;;6.27;;
16101;SDS011;56411;52.964;10.540;2023-06-10T04:41:58;14.57;;;5.67;;
16101;SDS011;56411;52.964;10.540;2023-06-10T04:44:25;12.52;;;5.68;;
16101;SDS011;56411;52.964;10.540;2023-06-10T04:46:54;13.65;;;5.57;;
16101;SDS011;56411;52.964;10.540;2023-06-10T04:49:21;15.83;;;5.93;;
16101;SDS011;56411;52.964;10.540;2023-06-10T04:51:48;14.80;;;5.90;;
16101;SDS011;56411;52.964;10.540;2023-06-10T04:54:16;16.60;;;6.47;;
16101;SDS011;56411;52.964;10.540;2023-06-10T04:56:43;13.35;;;5.57;;
16101;SDS011;56411;52.964;10.540;2023-06-10T04:59:10;14.13;;;5.60;;
16101;SDS011;56411;52.964;10.540;2023-06-10T05:01:37;13.73;;;5.33;;
16101;SDS011;56411;52.964;10.540;2023-06-10T05:04:05;16.00;;;5.67;;
16101;SDS011;56411;52.964;10.540;2023-06-10T05:06:32;15.67;;;6.20;;
16101;SDS011;56411;52.964;10.540;2023-06-10T05:09:01;14.03;;;5.73;;
16101;SDS011;56411;52.964;10.540;2023-06-10T05:11:28;14.55;;;5.80;;
16101;SDS011;56411;52.964;10.540;2023-06-10T05:13:55;16.10;;;6.35;;
16101;SDS011;56411;52.964;10.540;2023-06-10T05:16:24;14.13;;;6.00;;
16101;SDS011;56411;52.964;10.540;2023-06-10T05:18:51;13.73;;;5.60;;
16101;SDS011;56411;52.964;10.540;2023-06-10T05:21:20;15.73;;;5.60;;
16101;SDS011;56411;52.964;10.540;2023-06-10T05:23:47;14.55;;;5.10;;
16101;SDS011;56411;52.964;10.540;2023-06-10T05:26:14;15.83;;;5.70;;
16101;SDS011;56411;52.964;10.540;2023-06-10T05:28:41;14.60;;;6.07;;
16101;SDS011;56411;52.964;10.540;2023-06-10T05:31:09;14.25;;;6.38;;
16101;SDS011;56411;52.964;10.540;2023-06-10T05:33:36;14.70;;;5.88;;
16101;SDS011;56411;52.964;10.540;2023-06-10T05:36:03;15.13;;;5.80;;
16101;SDS011;56411;52.964;10.540;2023-06-10T05:38:32;15.87;;;5.73;;
16101;SDS011;56411;52.964;10.540;2023-06-10T05:40:59;15.15;;;5.93;;
16101;SDS011;56411;52.964;10.540;2023-06-10T05:43:40;13.82;;;5.25;;
16101;SDS011;56411;52.964;10.540;2023-06-10T05:46:07;13.73;;;5.10;;
16101;SDS011;56411;52.964;10.540;2023-06-10T05:48:34;17.75;;;5.85;;
16101;SDS011;56411;52.964;10.540;2023-06-10T05:51:01;15.00;;;5.80;;
16101;SDS011;56411;52.964;10.540;2023-06-10T05:53:28;14.27;;;5.57;;
16101;SDS011;56411;52.964;10.540;2023-06-10T05:55:56;14.33;;;5.60;;
16101;SDS011;56411;52.964;10.540;2023-06-10T05:58:24;11.77;;;5.30;;
16101;SDS011;56411;52.964;10.540;2023-06-10T06:00:51;14.57;;;5.45;;
16101;SDS011;56411;52.964;10.540;2023-06-10T06:03:18;14.40;;;5.10;;
16101;SDS011;56411;52.964;10.540;2023-06-10T06:05:45;15.50;;;5.38;;
16101;SDS011;56411;52.964;10.540;2023-06-10T06:08:11;10.75;;;4.70;;
16101;SDS011;56411;52.964;10.540;2023-06-10T06:10:42;16.25;;;5.45;;
16101;SDS011;56411;52.964;10.540;2023-06-10T06:13:11;15.73;;;5.30;;
16101;SDS011;56411;52.964;10.540;2023-06-10T06:15:38;15.07;;;6.03;;
16101;SDS011;56411;52.964;10.540;2023-06-10T06:18:05;13.65;;;5.60;;
16101;SDS011;56411;52.964;10.540;2023-06-10T06:20:32;14.70;;;5.95;;
16101;SDS011;56411;52.964;10.540;2023-06-10T06:22:59;13.70;;;5.18;;
16101;SDS011;56411;52.964;10.540;2023-06-10T06:25:26;15.77;;;5.80;;
16101;SDS011;56411;52.964;10.540;2023-06-10T06:27:53;15.40;;;5.80;;
16101;SDS011;56411;52.964;10.540;2023-06-10T06:30:21;18.55;;;6.93;;
16101;SDS011;56411;52.964;10.540;2023-06-10T06:32:49;13.82;;;6.00;;
16101;SDS011;56411;52.964;10.540;2023-06-10T06:35:16;16.45;;;5.78;;
16101;SDS011;56411;52.964;10.540;2023-06-10T06:37:46;15.50;;;6.35;;
16101;SDS011;56411;52.964;10.540;2023-06-10T06:40:13;12.50;;;5.63;;
16101;SDS011;56411;52.964;10.540;2023-06-10T06:42:40;14.02;;;6.05;;
16101;SDS011;56411;52.964;10.540;2023-06-10T06:45:07;12.80;;;4.88;;
16101;SDS011;56411;52.964;10.540;2023-06-10T06:47:36;14.35;;;5.07;;
16101;SDS011;56411;52.964;10.540;2023-06-10T06:50:03;15.35;;;5.72;;
16101;SDS011;56411;52.964;10.540;2023-06-10T06:52:37;13.35;;;5.03;;
16101;SDS011;56411;52.964;10.540;2023-06-10T06:55:05;14.40;;;5.07;;
16101;SDS011;56411;52.964;10.540;2023-06-10T06:57:32;14.88;;;5.28;;
16101;SDS011;56411;52.964;10.540;2023-06-10T06:59:59;16.05;;;5.72;;
16101;SDS011;56411;52.964;10.540;2023-06-10T07:02:26;17.25;;;5.40;;
16101;SDS011;56411;52.964;10.540;2023-06-10T07:04:59;13.38;;;5.15;;
16101;SDS011;56411;52.964;10.540;2023-06-10T07:07:26;14.35;;;5.28;;
16101;SDS011;56411;52.964;10.540;2023-06-10T07:10:02;13.85;;;5.68;;
16101;SDS011;56411;52.964;10.540;2023-06-10T07:12:32;15.00;;;5.78;;
16101;SDS011;56411;52.964;10.540;2023-06-10T07:14:59;12.25;;;4.75;;
16101;SDS011;56411;52.964;10.540;2023-06-10T07:17:26;14.15;;;5.70;;
16101;SDS011;56411;52.964;10.540;2023-06-10T07:19:53;12.38;;;5.22;;
16101;SDS011;56411;52.964;10.540;2023-06-10T07:22:23;12.90;;;5.13;;
16101;SDS011;56411;52.964;10.540;2023-06-10T07:24:50;12.05;;;5.32;;
16101;SDS011;56411;52.964;10.540;2023-06-10T07:27:19;12.70;;;5.30;;
16101;SDS011;56411;52.964;10.540;2023-06-10T07:29:46;12.32;;;5.07;;
16101;SDS011;56411;52.964;10.540;2023-06-10T07:32:13;15.68;;;6.30;;
16101;SDS011;56411;52.964;10.540;2023-06-10T07:34:40;13.95;;;5.78;;
16101;SDS011;56411;52.964;10.540;2023-06-10T07:37:07;14.13;;;5.30;;
16101;SDS011;56411;52.964;10.540;2023-06-10T07:39:36;16.88;;;5.82;;
16101;SDS011;56411;52.964;10.540;2023-06-10T07:42:03;12.75;;;5.25;;
16101;SDS011;56411;52.964;10.540;2023-06-10T07:44:31;11.98;;;5.30;;
16101;SDS011;56411;52.964;10.540;2023-06-10T07:46:58;13.88;;;5.18;;
16101;SDS011;56411;52.964;10.540;2023-06-10T07:49:25;12.73;;;5.38;;
16101;SDS011;56411;52.964;10.540;2023-06-10T07:51:53;12.57;;;5.40;;
16101;SDS011;56411;52.964;10.540;2023-06-10T07:54:20;14.43;;;5.78;;
16101;SDS011;56411;52.964;10.540;2023-06-10T07:56:49;15.10;;;6.03;;
16101;SDS011;56411;52.964;10.540;2023-06-10T07:59:17;14.98;;;5.43;;
16101;SDS011;56411;52.964;10.540;2023-06-10T08:01:45;13.85;;;5.97;;
16101;SDS011;56411;52.964;10.540;2023-06-10T08:04:12;13.02;;;5.15;;
16101;SDS011;56411;52.964;10.540;2023-06-10T08:06:39;15.32;;;4.97;;
16101;SDS011;56411;52.964;10.540;2023-06-10T08:09:06;12.88;;;5.18;;
16101;SDS011;56411;52.964;10.540;2023-06-10T08:11:33;11.05;;;5.10;;
16101;SDS011;56411;52.964;10.540;2023-06-10T08:14:02;14.15;;;5.60;;
16101;SDS011;56411;52.964;10.540;2023-06-10T08:16:29;12.50;;;5.43;;
16101;SDS011;56411;52.964;10.540;2023-06-10T08:18:59;14.07;;;5.45;;
16101;SDS011;56411;52.964;10.540;2023-06-10T08:21:26;16.83;;;6.65;;
16101;SDS011;56411;52.964;10.540;2023-06-10T08:23:54;14.32;;;5.63;;
16101;SDS011;56411;52.964;10.540;2023-06-10T08:26:21;13.20;;;6.00;;
16101;SDS011;56411;52.964;10.540;2023-06-10T08:28:48;14.27;;;5.38;;
16101;SDS011;56411;52.964;10.540;2023-06-10T08:31:16;13.50;;;5.50;;
16101;SDS011;56411;52.964;10.540;2023-06-10T08:33:43;13.70;;;5.22;;
16101;SDS011;56411;52.964;10.540;2023-06-10T08:36:10;13.75;;;5.15;;
16101;SDS011;56411;52.964;10.540;2023-06-10T08:38:37;12.68;;;5.75;;
16101;SDS011;56411;52.964;10.540;2023-06-10T08:41:05;17.83;;;6.40;;
16101;SDS011;56411;52.964;10.540;2023-06-10T08:43:33;15.07;;;6.13;;
16101;SDS011;56411;52.964;10.540;2023-06-10T08:46:05;15.23;;;5.80;;
16101;SDS011;56411;52.964;10.540;2023-06-10T08:48:37;12.27;;;5.07;;
16101;SDS011;56411;52.964;10.540;2023-06-10T08:51:09;13.30;;;4.97;;
16101;SDS011;56411;52.964;10.540;2023-06-10T08:53:37;14.10;;;5.70;;
16101;SDS011;56411;52.964;10.540;2023-06-10T08:56:11;74.07;;;11.85;;
16101;SDS011;56411;52.964;10.540;2023-06-10T08:58:39;14.25;;;5.40;;
16101;SDS011;56411;52.964;10.540;2023-06-10T09:01:08;12.07;;;5.03;;
16101;SDS011;56411;52.964;10.540;2023-06-10T09:03:37;10.55;;;4.95;;
16101;SDS011;56411;52.964;10.540;2023-06-10T09:06:05;12.38;;;5.22;;
16101;SDS011;56411;52.964;10.540;2023-06-10T09:08:33;14.15;;;5.18;;
16101;SDS011;56411;52.964;10.540;2023-06-10T09:11:01;12.02;;;5.45;;
16101;SDS011;56411;52.964;10.540;2023-06-10T09:13:28;14.43;;;5.75;;
16101;SDS011;56411;52.964;10.540;2023-06-10T09:15:57;12.30;;;5.28;;
16101;SDS011;56411;52.964;10.540;2023-06-10T09:18:26;13.73;;;5.85;;
16101;SDS011;56411;52.964;10.540;2023-06-10T09:20:55;13.07;;;5.35;;
16101;SDS011;56411;52.964;10.540;2023-06-10T09:23:22;12.68;;;5.43;;
16101;SDS011;56411;52.964;10.540;2023-06-10T09:25:55;12.20;;;5.25;;
16101;SDS011;56411;52.964;10.540;2023-06-10T09:28:24;13.60;;;5.50;;
16101;SDS011;56411;52.964;10.540;2023-06-10T09:31:01;14.90;;;5.72;;
16101;SDS011;56411;52.964;10.540;2023-06-10T09:33:30;12.60;;;5.70;;
16101;SDS011;56411;52.964;10.540;2023-06-10T09:36:00;14.65;;;5.38;;
16101;SDS011;56411;52.964;10.540;2023-06-10T09:38:31;12.93;;;5.30;;
16101;SDS011;56411;52.964;10.540;2023-06-10T09:41:00;12.55;;;5.55;;
16101;SDS011;56411;52.964;10.540;2023-06-10T09:43:40;13.75;;;5.28;;
16101;SDS011;56411;52.964;10.540;2023-06-10T09:46:13;13.18;;;6.25;;
16101;SDS011;56411;52.964;10.540;2023-06-10T09:48:45;13.70;;;5.78;;
16101;SDS011;56411;52.964;10.540;2023-06-10T09:51:14;12.73;;;5.97;;
16101;SDS011;56411;52.964;10.540;2023-06-10T09:53:47;14.30;;;6.05;;
16101;SDS011;56411;52.964;10.540;2023-06-10T09:56:16;12.32;;;5.70;;
16101;SDS011;56411;52.964;10.540;2023-06-10T09:58:44;14.15;;;6.05;;
16101;SDS011;56411;52.964;10.540;2023-06-10T10:01:12;11.63;;;5.78;;
16101;SDS011;56411;52.964;10.540;2023-06-10T10:03:44;13.30;;;6.15;;
16101;SDS011;56411;52.964;10.540;2023-06-10T10:06:17;13.07;;;6.50;;
16101;SDS011;56411;52.964;10.540;2023-06-10T10:08:47;13.10;;;5.95;;
16101;SDS011;56411;52.964;10.540;2023-06-10T10:11:16;12.75;;;6.15;;
16101;SDS011;56411;52.964;10.540;2023-06-10T10:13:44;12.05;;;6.32;;
16101;SDS011;56411;52.964;10.540;2023-06-10T10:16:16;13.98;;;6.75;;
16101;SDS011;56411;52.964;10.540;2023-06-10T10:18:46;15.40;;;6.70;;
16101;SDS011;56411;52.964;10.540;2023-06-10T10:21:21;13.68;;;6.47;;
16101;SDS011;56411;52.964;10.540;2023-06-10T10:23:53;12.93;;;6.78;;
16101;SDS011;56411;52.964;10.540;2023-06-10T10:26:23;13.27;;;6.28;;
16101;SDS011;56411;52.964;10.540;2023-06-10T10:28:56;13.13;;;6.60;;
16101;SDS011;56411;52.964;10.540;2023-06-10T10:31:32;13.10;;;7.00;;
16101;SDS011;56411;52.964;10.540;2023-06-10T10:34:02;12.02;;;6.82;;
16101;SDS011;56411;52.964;10.540;2023-06-10T10:36:34;11.90;;;7.18;;
16101;SDS011;56411;52.964;10.540;2023-06-10T10:39:02;13.40;;;6.68;;
16101;SDS011;56411;52.964;10.540;2023-06-10T10:41:31;13.75;;;7.18;;
16101;SDS011;56411;52.964;10.540;2023-06-10T10:44:00;10.82;;;6.55;;
16101;SDS011;56411;52.964;10.540;2023-06-10T10:46:30;12.55;;;6.95;;
16101;SDS011;56411;52.964;10.540;2023-06-10T10:49:08;13.07;;;6.82;;
16101;SDS011;56411;52.964;10.540;2023-06-10T10:51:47;13.57;;;7.00;;
16101;SDS011;56411;52.964;10.540;2023-06-10T10:54:28;15.13;;;7.03;;
16101;SDS011;56411;52.964;10.540;2023-06-10T10:57:12;12.50;;;6.35;;
16101;SDS011;56411;52.964;10.540;2023-06-10T10:59:44;14.48;;;7.18;;
16101;SDS011;56411;52.964;10.540;2023-06-10T11:02:31;13.40;;;7.10;;
16101;SDS011;56411;52.964;10.540;2023-06-10T11:05:00;13.00;;;6.80;;
16101;SDS011;56411;52.964;10.540;2023-06-10T11:07:30;13.32;;;7.38;;
16101;SDS011;56411;52.964;10.540;2023-06-10T11:09:58;11.90;;;7.20;;
16101;SDS011;56411;52.964;10.540;2023-06-10T11:12:33;10.75;;;6.53;;
16101;SDS011;56411;52.964;10.540;2023-06-10T11:15:17;15.82;;;7.25;;
16101;SDS011;56411;52.964;10.540;2023-06-10T11:20:43;14.02;;;7.65;;
16101;SDS011;56411;52.964;10.540;2023-06-10T11:23:26;13.60;;;7.60;;
16101;SDS011;56411;52.964;10.540;2023-06-10T11:26:16;14.45;;;7.10;;
16101;SDS011;56411;52.964;10.540;2023-06-10T11:29:06;13.23;;;7.32;;
16101;SDS011;56411;52.964;10.540;2023-06-10T11:31:48;13.07;;;7.20;;
16101;SDS011;56411;52.964;10.540;2023-06-10T11:34:21;10.98;;;6.88;;
16101;SDS011;56411;52.964;10.540;2023-06-10T11:36:52;12.43;;;7.20;;
16101;SDS011;56411;52.964;10.540;2023-06-10T11:39:21;12.80;;;7.50;;
16101;SDS011;56411;52.964;10.540;2023-06-10T11:41:51;11.73;;;7.05;;
16101;SDS011;56411;52.964;10.540;2023-06-10T11:44:18;14.75;;;7.20;;
16101;SDS011;56411;52.964;10.540;2023-06-10T11:46:47;13.65;;;7.10;;
16101;SDS011;56411;52.964;10.540;2023-06-10T11:49:17;12.90;;;6.70;;
16101;SDS011;56411;52.964;10.540;2023-06-10T11:51:47;12.43;;;7.20;;
16101;SDS011;56411;52.964;10.540;2023-06-10T11:54:17;12.52;;;6.63;;
16101;SDS011;56411;52.964;10.540;2023-06-10T11:56:56;11.73;;;6.63;;
16101;SDS011;56411;52.964;10.540;2023-06-10T11:59:27;13.73;;;6.85;;
16101;SDS011;56411;52.964;10.540;2023-06-10T12:01:55;13.02;;;7.10;;
16101;SDS011;56411;52.964;10.540;2023-06-10T12:04:23;12.25;;;6.65;;
16101;SDS011;56411;52.964;10.540;2023-06-10T12:06:52;14.50;;;6.63;;
16101;SDS011;56411;52.964;10.540;2023-06-10T12:09:23;12.35;;;6.60;;
16101;SDS011;56411;52.964;10.540;2023-06-10T12:11:53;11.77;;;6.45;;
16101;SDS011;56411;52.964;10.540;2023-06-10T12:17:23;12.25;;;6.13;;
16101;SDS011;56411;52.964;10.540;2023-06-10T12:20:07;13.10;;;6.40;;
16101;SDS011;56411;52.964;10.540;2023-06-10T12:22:53;10.30;;;5.78;;
16101;SDS011;56411;52.964;10.540;2023-06-10T12:25:24;10.18;;;5.70;;
16101;SDS011;56411;52.964;10.540;2023-06-10T12:27:57;13.93;;;6.03;;
16101;SDS011;56411;52.964;10.540;2023-06-10T12:30:25;11.07;;;6.15;;
16101;SDS011;56411;52.964;10.540;2023-06-10T12:32:55;11.85;;;6.03;;
16101;SDS011;56411;52.964;10.540;2023-06-10T12:35:25;11.13;;;6.28;;
16101;SDS011;56411;52.964;10.540;2023-06-10T12:38:00;12.80;;;6.03;;
16101;SDS011;56411;52.964;10.540;2023-06-10T12:40:34;9.60;;;5.35;;
16101;SDS011;56411;52.964;10.540;2023-06-10T12:43:06;9.32;;;5.75;;
16101;SDS011;56411;52.964;10.540;2023-06-10T12:45:36;11.25;;;5.55;;
16101;SDS011;56411;52.964;10.540;2023-06-10T12:48:08;9.10;;;5.38;;
16101;SDS011;56411;52.964;10.540;2023-06-10T12:50:39;11.68;;;5.50;;
16101;SDS011;56411;52.964;10.540;2023-06-10T12:53:07;10.70;;;5.80;;
16101;SDS011;56411;52.964;10.540;2023-06-10T12:55:36;8.90;;;5.80;;
16101;SDS011;56411;52.964;10.540;2023-06-10T12:58:04;13.88;;;6.13;;
16101;SDS011;56411;52.964;10.540;2023-06-10T13:00:35;14.43;;;6.05;;
16101;SDS011;56411;52.964;10.540;2023-06-10T13:03:04;10.95;;;5.47;;
16101;SDS011;56411;52.964;10.540;2023-06-10T13:05:32;10.57;;;6.05;;
16101;SDS011;56411;52.964;10.540;2023-06-10T13:08:02;10.68;;;5.55;;
16101;SDS011;56411;52.964;10.540;2023-06-10T13:10:30;10.63;;;5.40;;
16101;SDS011;56411;52.964;10.540;2023-06-10T13:13:00;10.80;;;6.10;;
16101;SDS011;56411;52.964;10.540;2023-06-10T13:15:29;11.02;;;5.68;;
16101;SDS011;56411;52.964;10.540;2023-06-10T13:17:56;12.52;;;6.65;;
16101;SDS011;56411;52.964;10.540;2023-06-10T13:20:23;12.07;;;6.30;;
16101;SDS011;56411;52.964;10.540;2023-06-10T13:22:51;10.27;;;5.80;;
16101;SDS011;56411;52.964;10.540;2023-06-10T13:25:18;11.32;;;7.32;;
16101;SDS011;56411;52.964;10.540;2023-06-10T13:27:45;9.93;;;5.35;;
16101;SDS011;56411;52.964;10.540;2023-06-10T13:30:13;9.45;;;5.30;;
16101;SDS011;56411;52.964;10.540;2023-06-10T13:32:41;10.60;;;5.72;;
16101;SDS011;56411;52.964;10.540;2023-06-10T13:38:30;10.40;;;6.47;;
16101;SDS011;56411;52.964;10.540;2023-06-10T13:40:58;11.43;;;6.03;;
16101;SDS011;56411;52.964;10.540;2023-06-10T13:43:25;10.90;;;5.78;;
16101;SDS011;56411;52.964;10.540;2023-06-10T13:45:54;10.93;;;5.45;;
16101;SDS011;56411;52.964;10.540;2023-06-10T13:48:23;9.48;;;5.00;;
16101;SDS011;56411;52.964;10.540;2023-06-10T13:50:51;10.55;;;5.45;;
16101;SDS011;56411;52.964;10.540;2023-06-10T13:53:18;12.60;;;5.88;;
16101;SDS011;56411;52.964;10.540;2023-06-10T13:55:45;10.43;;;5.40;;
16101;SDS011;56411;52.964;10.540;2023-06-10T13:58:12;12.38;;;5.57;;
16101;SDS011;56411;52.964;10.540;2023-06-10T14:00:41;10.73;;;6.10;;
16101;SDS011;56411;52.964;10.540;2023-06-10T14:03:09;14.25;;;6.32;;
16101;SDS011;56411;52.964;10.540;2023-06-10T14:05:41;12.02;;;6.70;;
16101;SDS011;56411;52.964;10.540;2023-06-10T14:08:10;10.88;;;6.35;;
16101;SDS011;56411;52.964;10.540;2023-06-10T14:10:38;10.52;;;5.95;;
16101;SDS011;56411;52.964;10.540;2023-06-10T14:13:05;9.80;;;5.47;;
16101;SDS011;56411;52.964;10.540;2023-06-10T14:15:32;10.70;;;6.10;;
16101;SDS011;56411;52.964;10.540;2023-06-10T14:17:59;11.23;;;6.00;;
16101;SDS011;56411;52.964;10.540;2023-06-10T14:20:26;11.23;;;5.97;;
16101;SDS011;56411;52.964;10.540;2023-06-10T14:22:57;10.77;;;5.78;;
16101;SDS011;56411;52.964;10.540;2023-06-10T14:25:24;11.75;;;6.53;;
16101;SDS011;56411;52.964;10.540;2023-06-10T14:27:51;10.63;;;5.97;;
16101;SDS011;56411;52.964;10.540;2023-06-10T14:30:18;10.18;;;6.43;;
16101;SDS011;56411;52.964;10.540;2023-06-10T14:32:45;10.43;;;5.50;;
16101;SDS011;56411;52.964;10.540;2023-06-10T14:35:12;11.15;;;5.55;;
16101;SDS011;56411;52.964;10.540;2023-06-10T14:37:40;10.13;;;5.93;;
16101;SDS011;56411;52.964;10.540;2023-06-10T14:40:09;11.15;;;6.10;;